Language selection

Features

My Weather Profile Weather Topics  | 

East Labrador Sea: Past 24 Hour Conditions

 

Makkovik Airport

10:00 PM AST 20 January 2020
Disclaimer

This table is a summary of hourly weather conditions for the past 24 hours.
Please note that these observations might not always be representative of weather conditions over their associated marine area.

Date / Time
(AST)
Wind(knots) Conditions Visibility(km) Pressure(kPa) Air tempC) Relative humidity(%) Dew pointC) Wind Chill
20 January 2020
22:00 WSW 12 N/A N/A 100.6 -22 64 -27 -33
21:00 SW 12 gust 17 N/A N/A 100.6 -21 64 -27 -33
20:00 WSW 15 N/A N/A 100.6 -21 62 -27 -34
19:00 WSW 17 N/A N/A 100.5 -21 62 -26 -34
18:00 SW 15 N/A N/A 100.6 -21 62 -26 -33
17:00 WSW 15 Clear 24 100.5 -20 60 -26 -32
16:00 SW 10 gust 16 Sunny 24 100.5 -20 59 -26 -30
15:00 WSW 13 gust 19 Sunny 24 100.4 -19 57 -25 -30
14:00 WSW 12 gust 17 Sunny 24 100.4 -19 57 -25 -29
13:00 WSW 12 Sunny 24 100.4 -19 60 -25 -30
12:00 SW 12 Sunny 24 100.5 -20 61 -26 -31
11:00 SW 13 Sunny 24 100.6 -21 63 -26 -32
10:00 SW 13 Sunny 24 100.6 -21 65 -26 -33
9:00 SW 14 Sunny 24 100.6 -22 67 -26 -34
8:00 SW 15 Clear 24 100.6 -22 67 -26 -34
7:00 SW 13 Mainly Clear 24 100.5 -21 66 -26 -33
6:00 WSW 12 Clear 24 100.6 -20 65 -26 -32
5:00 WSW 15 gust 22 N/A N/A 100.6 -20 63 -25 -32
4:00 WSW 16 N/A N/A 100.7 -20 62 -25 -32
3:00 WSW 15 gust 21 N/A N/A 100.7 -19 62 -25 -31
2:00 WSW 22 N/A N/A 100.6 -19 62 -25 -33
1:00 WSW 20 gust 26 N/A N/A 100.7 -19 62 -25 -32
0:00 WSW 17 gust 23 N/A N/A 100.8 -19 64 -25 -32
19 January 2020
23:00 SW 19 N/A N/A 100.8 -19 65 -24 -32
22:00 SW 17 gust 24 N/A N/A 100.8 -19 63 -24 -32

Zoom-in to make a selection

Map of Atlantic - Labrador marine weather areas Kangiqsualujjuaq Airport Cape Kakkiviak Cape Kiglapait Cartwright Airport CFB Goose Bay Hopedale Mary's Harbour Nain Airport Makkovik Airport Saglek Tukialik Bay
Legend:
buoy Buoy
land station Land Station

Atlantic - Labrador Area

Another Region

What we are doing

Date modified: